Time;durP1;ratioP1;P1;durP2;ratioP2;P2;SDS_P1;SDS_P2;PMS_P1;PMS_P2;Temp;Humidity;BMP_temperature;BMP_pressure;BME280_temperature;BME280_humidity;BME280_pressure;Samples;Min_cycle;Max_cycle;Signal;HPM_P1;HPM_P2
2022/01/26 00:07:12;;;;;;;2.15;1.70;;;2.70;99.90;;;;;;5059274;28;20490;-84
2022/01/26 00:09:38;;;;;;;0.70;0.70;;;2.70;99.90;;;;;;5070821;28;20032;-84
2022/01/26 00:12:04;;;;;;;1.00;1.00;;;2.80;99.90;;;;;;5053516;28;20083;-84
2022/01/26 00:14:30;;;;;;;0.82;0.82;;;2.70;99.90;;;;;;5064503;28;20085;-83
2022/01/26 00:16:55;;;;;;;2.38;2.17;;;2.70;99.90;;;;;;5078608;28;20127;-84
2022/01/26 00:19:25;;;;;;;2.08;1.65;;;2.70;99.90;;;;;;5060579;28;20037;-84
2022/01/26 00:21:55;;;;;;;2.85;2.65;;;2.80;99.90;;;;;;5071320;28;20048;-83
2022/01/26 00:24:51;;;;;;;1.50;1.40;;;2.80;99.90;;;;;;5074234;28;20115;-83
2022/01/26 00:27:48;;;;;;;1.15;1.13;;;2.80;99.90;;;;;;5072429;28;20079;-83
2022/01/26 00:34:18;;;;;;;4.55;2.30;;;2.80;99.90;;;;;;5077300;28;20385;-83
2022/01/26 00:38:40;;;;;;;1.70;1.23;;;2.80;99.90;;;;;;5069646;28;19951;-83
2022/01/26 00:41:11;;;;;;;1.63;1.52;;;2.70;99.90;;;;;;5057718;28;20037;-83
2022/01/26 00:43:43;;;;;;;0.80;0.80;;;2.70;99.90;;;;;;5074028;28;20044;-83
2022/01/26 00:46:10;;;;;;;2.45;2.25;;;2.70;99.90;;;;;;5063281;28;20751;-85
2022/01/26 00:48:37;;;;;;;6.32;1.88;;;2.70;99.90;;;;;;5075057;28;20119;-84
2022/01/26 00:51:06;;;;;;;29.65;1.98;;;2.70;99.90;;;;;;5068809;28;20047;-82
2022/01/26 00:53:42;;;;;;;1.52;1.42;;;2.70;99.90;;;;;;5076971;28;20099;-84
2022/01/26 00:56:08;;;;;;;1.73;1.63;;;2.70;99.90;;;;;;5080594;28;20049;-82
2022/01/26 00:58:34;;;;;;;2.35;2.13;;;2.70;99.90;;;;;;5073560;28;20056;-82
2022/01/26 01:01:01;;;;;;;3.42;2.78;;;2.70;99.90;;;;;;5066246;28;20047;-83
2022/01/26 01:03:28;;;;;;;2.40;2.20;;;2.70;99.90;;;;;;5063622;28;20541;-83
2022/01/26 01:08:23;;;;;;;3.63;2.30;;;2.60;99.90;;;;;;5072497;28;20044;-83
2022/01/26 01:10:50;;;;;;;3.10;2.80;;;2.60;99.90;;;;;;5077304;28;20055;-84
2022/01/26 01:13:20;;;;;;;4.85;3.72;;;2.60;99.90;;;;;;5078842;28;20120;-83
2022/01/26 01:15:49;;;;;;;3.47;2.13;;;2.70;99.90;;;;;;5062831;28;20047;-83
2022/01/26 01:19:06;;;;;;;7.47;2.67;;;2.60;99.90;;;;;;5079780;28;20051;-83
2022/01/26 01:26:48;;;;;;;2.13;1.92;;;2.70;99.90;;;;;;5074926;28;20106;-83
2022/01/26 01:29:25;;;;;;;1.55;1.45;;;2.60;99.90;;;;;;5058473;28;20062;-83
2022/01/26 01:31:54;;;;;;;3.97;2.83;;;2.60;99.90;;;;;;5076617;28;20080;-83
2022/01/26 01:34:25;;;;;;;2.75;2.45;;;2.60;99.90;;;;;;5079357;28;20497;-83
2022/01/26 01:36:53;;;;;;;6.40;3.05;;;2.60;99.90;;;;;;5077120;28;20044;-83
2022/01/26 01:39:20;;;;;;;4.85;2.33;;;2.50;99.90;;;;;;5073242;28;20033;-85
2022/01/26 01:41:48;;;;;;;1.55;1.45;;;2.50;99.90;;;;;;5075714;28;20055;-84
2022/01/26 01:44:15;;;;;;;2.10;1.95;;;2.60;99.90;;;;;;5076024;28;20041;-83
2022/01/26 01:46:42;;;;;;;1.45;1.35;;;2.60;99.90;;;;;;5077043;28;20049;-83
2022/01/26 01:49:10;;;;;;;3.55;3.13;;;2.60;99.90;;;;;;5055007;28;20098;-83
2022/01/26 01:51:39;;;;;;;1.15;1.05;;;2.60;99.90;;;;;;5076561;28;20090;-84
2022/01/26 01:54:13;;;;;;;2.92;1.88;;;2.60;99.90;;;;;;5075325;28;20044;-83
2022/01/26 01:56:41;;;;;;;1.85;1.50;;;2.60;99.90;;;;;;5082127;28;20037;-83
2022/01/26 01:59:07;;;;;;;2.97;2.53;;;2.60;99.90;;;;;;5082166;28;20044;-84
2022/01/26 02:01:32;;;;;;;2.10;1.75;;;2.50;99.90;;;;;;5064924;28;20067;-83
2022/01/26 02:03:58;;;;;;;2.85;2.38;;;2.60;99.90;;;;;;5065770;28;20054;-84
2022/01/26 02:06:23;;;;;;;4.78;3.33;;;2.50;99.90;;;;;;5080042;28;20099;-84
2022/01/26 02:08:49;;;;;;;5.85;1.88;;;2.80;99.90;;;;;;5082059;28;20124;-84
2022/01/26 02:11:15;;;;;;;1.77;1.67;;;2.50;99.90;;;;;;5081260;28;20052;-83
2022/01/26 02:14:00;;;;;;;2.75;2.55;;;2.50;99.90;;;;;;5078006;28;20120;-84
2022/01/26 02:16:39;;;;;;;3.80;2.40;;;2.50;99.90;;;;;;5082223;28;20036;-83
2022/01/26 03:00:15;;;;;;;3.50;2.88;;;2.50;99.90;;;;;;5075591;28;20632;-83
2022/01/26 03:02:50;;;;;;;2.40;2.20;;;2.60;99.90;;;;;;5079099;28;20128;-84
2022/01/26 03:05:18;;;;;;;7.38;2.22;;;2.50;99.90;;;;;;5081916;28;20040;-84
2022/01/26 03:07:51;;;;;;;1.55;1.45;;;2.50;99.90;;;;;;5081247;28;20100;-84
2022/01/26 03:12:59;;;;;;;2.17;1.77;;;2.60;99.90;;;;;;5076295;28;20068;-83
2022/01/26 03:15:32;;;;;;;4.13;2.85;;;2.50;99.90;;;;;;5063111;28;20546;-83
2022/01/26 03:18:30;;;;;;;2.88;2.65;;;2.40;99.90;;;;;;5064650;28;20036;-83
2022/01/26 03:20:58;;;;;;;2.63;2.08;;;2.50;99.90;;;;;;5073379;28;20059;-83
2022/01/26 03:33:54;;;;;;;2.70;1.67;;;2.40;99.90;;;;;;5081221;28;20524;-83
2022/01/26 03:36:20;;;;;;;3.45;3.13;;;2.40;99.90;;;;;;5064279;28;20044;-84
2022/01/26 03:38:50;;;;;;;4.80;3.95;;;2.50;99.90;;;;;;5080649;28;20694;-83
2022/01/26 03:44:00;;;;;;;5.72;2.40;;;2.50;99.90;;;;;;5077340;28;20075;-83
2022/01/26 03:46:26;;;;;;;7.32;1.88;;;2.50;99.90;;;;;;5080203;28;20505;-83
2022/01/26 03:48:52;;;;;;;5.45;2.15;;;2.50;99.90;;;;;;5078608;28;20064;-83
2022/01/26 03:51:18;;;;;;;2.05;1.55;;;2.40;99.90;;;;;;5063284;28;20052;-84
2022/01/26 03:53:43;;;;;;;2.50;1.83;;;2.40;99.90;;;;;;5064108;28;20036;-83
2022/01/26 03:56:09;;;;;;;2.70;1.77;;;2.40;99.90;;;;;;5081033;28;20040;-82
2022/01/26 03:58:34;;;;;;;5.85;2.60;;;2.40;99.90;;;;;;5064017;28;20131;-84
2022/01/26 04:01:00;;;;;;;2.47;2.28;;;;;;;;;;5080493;28;20051;-84
2022/01/26 04:03:26;;;;;;;1.00;1.00;;;2.40;99.90;;;;;;5080603;28;20036;-83
2022/01/26 04:05:51;;;;;;;2.67;1.88;;;2.40;99.90;;;;;;5078941;28;20036;-84
2022/01/26 04:08:23;;;;;;;4.18;2.10;;;2.40;99.90;;;;;;5079695;28;20050;-84
2022/01/26 04:11:03;;;;;;;0.80;0.80;;;2.40;99.90;;;;;;5076189;28;20048;-84
2022/01/26 04:13:29;;;;;;;1.92;1.80;;;2.40;99.90;;;;;;5080867;28;20524;-84
2022/01/26 04:15:55;;;;;;;1.65;1.35;;;2.40;99.90;;;;;;5080319;28;20051;-84
2022/01/26 04:18:26;;;;;;;2.20;2.00;;;2.40;99.90;;;;;;5080819;28;20123;-84
2022/01/26 04:20:56;;;;;;;4.78;3.17;;;2.40;99.90;;;;;;5070720;28;20053;-83
2022/01/26 04:25:49;;;;;;;1.75;1.65;;;2.40;99.90;;;;;;5080997;28;20044;-83
2022/01/26 04:29:01;;;;;;;1.75;1.65;;;2.40;99.90;;;;;;5080778;28;20045;-83
2022/01/26 04:31:03;;;;;;;2.13;1.92;;;2.40;99.90;;;;;;5075078;28;20059;-83
2022/01/26 04:33:32;;;;;;;1.52;1.45;;;2.40;99.90;;;;;;5064447;28;20041;-83
2022/01/26 04:35:58;;;;;;;1.75;1.65;;;2.40;99.90;;;;;;5080847;28;20088;-83
2022/01/26 04:38:34;;;;;;;3.55;1.85;;;2.40;99.90;;;;;;5063734;28;20092;-83
2022/01/26 04:43:46;;;;;;;1.60;1.50;;;2.40;99.90;;;;;;5073134;28;20080;-83
2022/01/26 04:46:12;;;;;;;1.55;1.45;;;2.40;99.90;;;;;;5061968;28;20099;-83
2022/01/26 04:48:37;;;;;;;5.35;2.85;;;2.40;99.90;;;;;;5070614;28;20048;-83
2022/01/26 04:51:03;;;;;;;1.58;1.48;;;2.40;99.90;;;;;;5061538;28;20389;-84
2022/01/26 04:53:29;;;;;;;1.98;1.80;;;2.40;99.90;;;;;;5078550;28;20051;-83
2022/01/26 04:55:54;;;;;;;0.98;0.98;;;2.40;99.90;;;;;;5077653;28;20083;-84
2022/01/26 04:58:20;;;;;;;1.98;1.70;;;2.40;99.90;;;;;;5063514;28;20040;-84
2022/01/26 05:00:45;;;;;;;7.32;1.60;;;2.30;99.90;;;;;;5068858;28;20059;-84
2022/01/26 05:03:11;;;;;;;2.08;1.85;;;2.40;99.90;;;;;;5063941;28;20040;-83
2022/01/26 05:05:37;;;;;;;1.70;1.60;;;2.40;99.90;;;;;;5080807;28;20174;-83
2022/01/26 05:08:03;;;;;;;1.50;1.40;;;2.30;99.90;;;;;;5077347;28;20064;-84
2022/01/26 05:10:28;;;;;;;5.53;3.08;;;2.40;99.90;;;;;;5080149;28;20147;-84
2022/01/26 05:12:54;;;;;;;2.70;1.67;;;2.40;99.90;;;;;;5079340;28;20111;-84
2022/01/26 05:15:23;;;;;;;1.38;1.27;;;2.30;99.90;;;;;;5080272;28;20096;-84
2022/01/26 05:17:49;;;;;;;1.25;1.20;;;2.40;99.90;;;;;;5062921;28;20037;-83
2022/01/26 05:20:15;;;;;;;2.38;1.80;;;2.30;99.90;;;;;;5076944;28;20037;-84
2022/01/26 05:22:41;;;;;;;1.00;1.00;;;2.30;99.90;;;;;;5077173;28;20037;-83
2022/01/26 05:25:07;;;;;;;2.90;1.67;;;2.40;99.90;;;;;;5079466;28;20072;-83
2022/01/26 05:27:33;;;;;;;3.70;2.20;;;2.50;99.90;;;;;;5079504;28;20040;-84
2022/01/26 05:29:59;;;;;;;1.08;1.08;;;2.30;99.90;;;;;;5079381;28;20091;-85
2022/01/26 05:32:25;;;;;;;2.30;2.10;;;2.40;99.90;;;;;;5063551;28;20417;-84
2022/01/26 05:34:51;;;;;;;1.50;1.33;;;2.30;99.90;;;;;;5077190;28;20037;-84
2022/01/26 05:37:16;;;;;;;1.10;1.08;;;2.30;99.90;;;;;;5078779;28;20075;-84
2022/01/26 05:39:43;;;;;;;6.65;2.20;;;2.30;99.90;;;;;;5079574;28;20048;-84
2022/01/26 05:42:09;;;;;;;1.75;1.60;;;2.30;99.90;;;;;;5080337;28;20079;-84
2022/01/26 05:44:35;;;;;;;1.02;1.02;;;2.30;99.90;;;;;;5076410;28;20078;-84
2022/01/26 05:47:01;;;;;;;1.85;1.70;;;2.30;99.90;;;;;;5079955;28;20047;-84
2022/01/26 05:49:27;;;;;;;1.85;1.75;;;2.30;99.90;;;;;;5061670;28;20055;-84
2022/01/26 05:51:53;;;;;;;2.53;1.90;;;2.30;99.90;;;;;;5062281;28;20040;-84
2022/01/26 05:54:19;;;;;;;2.05;1.58;;;2.30;99.90;;;;;;5063024;28;20051;-84
2022/01/26 05:56:47;;;;;;;5.22;3.22;;;2.30;99.90;;;;;;5079589;28;20049;-84
2022/01/26 05:59:16;;;;;;;2.05;1.85;;;2.30;99.90;;;;;;5063124;28;20037;-84
2022/01/26 06:01:42;;;;;;;1.35;1.25;;;2.30;99.90;;;;;;5059747;28;20040;-83
2022/01/26 06:04:07;;;;;;;1.90;1.80;;;2.30;99.90;;;;;;5078571;28;20032;-83
2022/01/26 06:06:33;;;;;;;3.65;1.55;;;2.30;99.90;;;;;;5078945;28;20039;-84
2022/01/26 06:08:58;;;;;;;2.08;1.83;;;2.30;99.90;;;;;;5079725;28;20094;-84
2022/01/26 06:11:24;;;;;;;3.78;3.42;;;2.30;99.90;;;;;;5079269;28;20104;-84
2022/01/26 06:13:50;;;;;;;1.05;1.05;;;2.30;99.90;;;;;;5079718;28;20147;-84
2022/01/26 06:16:16;;;;;;;1.83;1.63;;;2.30;99.90;;;;;;5076245;28;20083;-84
2022/01/26 06:18:43;;;;;;;6.18;3.38;;;2.30;99.90;;;;;;5079657;28;20044;-84
2022/01/26 06:21:10;;;;;;;1.23;1.13;;;2.30;99.90;;;;;;5077836;28;20037;-83
2022/01/26 06:23:35;;;;;;;1.23;1.20;;;2.20;99.90;;;;;;5079255;28;20060;-84
2022/01/26 06:26:01;;;;;;;5.57;2.75;;;2.30;99.90;;;;;;5079497;28;20119;-83
2022/01/26 06:28:28;;;;;;;1.50;1.35;;;2.20;99.90;;;;;;5079298;28;20047;-84
2022/01/26 06:31:00;;;;;;;5.15;1.75;;;2.40;99.90;;;;;;5078862;28;20037;-84
2022/01/26 06:33:26;;;;;;;1.52;1.42;;;2.20;99.90;;;;;;5059502;28;20551;-83
2022/01/26 06:35:53;;;;;;;1.98;1.83;;;2.20;99.90;;;;;;5073283;28;20036;-84
2022/01/26 06:38:18;;;;;;;3.05;2.20;;;2.30;99.90;;;;;;5065417;28;20040;-84
2022/01/26 06:40:44;;;;;;;4.60;1.38;;;2.20;99.90;;;;;;5076772;28;20044;-84
2022/01/26 06:43:11;;;;;;;2.97;2.03;;;2.20;99.90;;;;;;5065518;28;20103;-84
2022/01/26 06:45:44;;;;;;;1.58;1.48;;;2.20;99.90;;;;;;5078369;28;20049;-84
2022/01/26 06:48:38;;;;;;;8.80;4.40;;;2.20;99.90;;;;;;5076100;28;20461;-85
2022/01/26 06:50:59;;;;;;;6.65;3.15;;;2.20;99.90;;;;;;5078533;28;20114;-84
2022/01/26 06:53:25;;;;;;;1.52;1.42;;;2.20;99.90;;;;;;5078200;28;20041;-85
2022/01/26 06:55:53;;;;;;;24.85;2.65;;;2.20;99.90;;;;;;5063356;28;20044;-85
2022/01/26 06:58:19;;;;;;;5.13;2.75;;;2.20;99.90;;;;;;5076144;28;20044;-85
2022/01/26 07:00:44;;;;;;;1.98;1.80;;;2.20;99.90;;;;;;5056869;28;20072;-84
2022/01/26 07:03:10;;;;;;;3.53;3.05;;;2.30;99.90;;;;;;5060388;28;20055;-84
2022/01/26 07:05:36;;;;;;;2.80;2.40;;;2.20;99.90;;;;;;5081405;28;20055;-84
2022/01/26 07:08:02;;;;;;;6.18;2.08;;;2.30;99.90;;;;;;5064590;28;20037;-85
2022/01/26 07:10:28;;;;;;;4.22;2.47;;;2.20;99.90;;;;;;5081078;28;20055;-84
2022/01/26 07:12:54;;;;;;;2.47;2.28;;;2.20;99.90;;;;;;5059838;28;20037;-83
2022/01/26 07:23:57;;;;;;;2.80;2.30;;;2.20;99.90;;;;;;5046795;28;20108;-82
2022/01/26 07:26:27;;;;;;;2.65;2.35;;;2.20;99.90;;;;;;5079507;28;20045;-82
2022/01/26 07:28:53;;;;;;;0.90;0.90;;;2.20;99.90;;;;;;5081664;28;20471;-84
2022/01/26 07:31:18;;;;;;;3.65;2.28;;;2.30;99.90;;;;;;5081715;28;20052;-85
2022/01/26 07:33:44;;;;;;;2.88;1.83;;;2.20;99.90;;;;;;5060872;28;20147;-82
2022/01/26 07:36:10;;;;;;;3.45;3.13;;;2.20;99.90;;;;;;5077962;28;20033;-83
2022/01/26 07:38:36;;;;;;;3.42;3.05;;;2.20;99.90;;;;;;5080026;28;20078;-83
2022/01/26 07:41:02;;;;;;;1.50;1.40;;;2.20;99.90;;;;;;5080748;28;20097;-83
2022/01/26 07:43:27;;;;;;;1.45;1.35;;;2.20;99.90;;;;;;5080955;28;20105;-82
2022/01/26 07:45:53;;;;;;;1.42;1.30;;;2.20;99.90;;;;;;5074230;28;20060;-82
2022/01/26 07:48:19;;;;;;;1.65;1.55;;;2.20;99.90;;;;;;5056553;28;20036;-82
2022/01/26 07:50:45;;;;;;;3.90;2.38;;;2.20;99.90;;;;;;5079412;28;20065;-82
2022/01/26 07:53:15;;;;;;;10.88;4.20;;;2.30;99.90;;;;;;5062299;28;20040;-81
2022/01/26 07:55:41;;;;;;;2.50;2.00;;;2.30;99.90;;;;;;5082352;28;20045;-82
2022/01/26 07:58:09;;;;;;;3.22;2.85;;;2.30;99.90;;;;;;5077777;28;20058;-84
2022/01/26 08:00:34;;;;;;;11.82;3.92;;;2.40;99.90;;;;;;5060986;28;20040;-84
2022/01/26 08:03:00;;;;;;;5.55;3.70;;;2.30;99.90;;;;;;5058196;28;20044;-83
2022/01/26 08:05:26;;;;;;;4.00;3.63;;;2.30;99.90;;;;;;5078537;28;20150;-83
2022/01/26 08:07:52;;;;;;;5.05;2.45;;;2.30;99.90;;;;;;5077331;28;20580;-85
2022/01/26 08:10:17;;;;;;;2.25;2.10;;;2.30;99.90;;;;;;5078846;28;20115;-85
2022/01/26 08:12:43;;;;;;;2.42;2.22;;;2.30;99.90;;;;;;5060504;28;20497;-82
2022/01/26 08:15:09;;;;;;;5.43;3.53;;;2.30;99.90;;;;;;5077623;28;20151;-84
2022/01/26 08:17:36;;;;;;;3.33;2.58;;;2.30;99.90;;;;;;5079402;28;20094;-83
2022/01/26 08:20:05;;;;;;;1.95;1.75;;;2.30;99.90;;;;;;5078388;28;20036;-84
2022/01/26 08:22:31;;;;;;;1.98;1.88;;;2.40;99.90;;;;;;5061714;28;20551;-83
2022/01/26 08:24:57;;;;;;;1.80;1.70;;;2.40;99.90;;;;;;5077084;28;20109;-82
2022/01/26 08:27:25;;;;;;;2.60;1.95;;;2.50;99.90;;;;;;5079840;28;20044;-83
2022/01/26 08:29:55;;;;;;;4.93;3.30;;;2.50;99.90;;;;;;5079662;28;20055;-83
2022/01/26 08:32:21;;;;;;;10.82;3.35;;;2.50;99.90;;;;;;5063214;28;20135;-83
2022/01/26 08:34:47;;;;;;;4.13;2.90;;;2.50;99.90;;;;;;5076423;28;20068;-83
2022/01/26 08:37:13;;;;;;;1.92;1.50;;;2.40;99.90;;;;;;5074883;28;20028;-82
2022/01/26 08:39:38;;;;;;;12.77;5.03;;;2.40;99.90;;;;;;5080048;28;20411;-83
2022/01/26 08:42:08;;;;;;;4.82;3.35;;;2.40;99.90;;;;;;5080612;28;20051;-84
2022/01/26 08:44:35;;;;;;;3.15;1.52;;;2.50;99.90;;;;;;5079322;28;20089;-83
2022/01/26 08:47:02;;;;;;;4.18;2.20;;;2.50;99.90;;;;;;5076027;28;20046;-83
2022/01/26 08:49:31;;;;;;;1.70;1.42;;;2.50;99.90;;;;;;5062053;28;20506;-84
2022/01/26 08:51:57;;;;;;;2.55;2.13;;;2.50;99.90;;;;;;5071387;28;20174;-83
2022/01/26 08:54:22;;;;;;;4.97;3.03;;;2.50;99.90;;;;;;5077610;28;20044;-83
2022/01/26 08:56:52;;;;;;;4.00;3.25;;;2.60;99.90;;;;;;5076019;28;20067;-85
2022/01/26 08:59:20;;;;;;;1.77;1.67;;;2.60;99.90;;;;;;5059307;28;20044;-81
2022/01/26 09:01:46;;;;;;;3.83;2.10;;;2.60;99.90;;;;;;5075418;28;20104;-84
2022/01/26 09:04:13;;;;;;;4.07;2.75;;;2.60;99.90;;;;;;5079017;28;20120;-83
2022/01/26 09:06:50;;;;;;;4.60;3.35;;;2.60;99.90;;;;;;5073603;28;20052;-83
2022/01/26 09:09:17;;;;;;;5.35;3.45;;;2.60;99.90;;;;;;5075639;28;20040;-86
2022/01/26 09:11:43;;;;;;;1.27;1.17;;;2.60;99.90;;;;;;5067245;28;20056;-86
2022/01/26 09:14:10;;;;;;;4.70;3.90;;;2.60;99.90;;;;;;5076890;28;20175;-83
2022/01/26 09:16:36;;;;;;;2.80;2.22;;;2.60;99.90;;;;;;5080635;28;20040;-82
2022/01/26 09:19:12;;;;;;;2.20;2.00;;;2.60;99.90;;;;;;5080169;28;20040;-83
2022/01/26 09:21:39;;;;;;;2.63;2.40;;;2.70;99.90;;;;;;5078179;28;20088;-82
2022/01/26 09:24:05;;;;;;;4.88;3.58;;;2.70;99.90;;;;;;5078391;28;20044;-83
2022/01/26 09:26:30;;;;;;;3.33;2.25;;;2.70;99.90;;;;;;5059011;28;20099;-82
2022/01/26 09:28:56;;;;;;;3.55;3.00;;;2.70;99.90;;;;;;5080585;28;20123;-83
2022/01/26 09:31:21;;;;;;;7.07;2.80;;;2.70;99.90;;;;;;5078336;28;20067;-84
2022/01/26 09:33:47;;;;;;;11.52;3.65;;;2.70;99.90;;;;;;5058759;28;20036;-83
2022/01/26 09:36:13;;;;;;;2.08;1.98;;;2.70;99.90;;;;;;5077502;28;20047;-83
2022/01/26 09:38:39;;;;;;;3.10;2.15;;;2.70;99.90;;;;;;5077133;28;20079;-85
2022/01/26 09:41:04;;;;;;;1.73;1.60;;;2.80;99.90;;;;;;5075347;28;20044;-82
2022/01/26 09:43:31;;;;;;;5.82;2.40;;;2.80;99.90;;;;;;5076758;28;20068;-85
2022/01/26 09:45:57;;;;;;;3.05;2.65;;;2.80;99.90;;;;;;5059959;28;20049;-84
2022/01/26 09:48:23;;;;;;;8.93;2.75;;;2.80;99.90;;;;;;5079124;28;20045;-85
2022/01/26 09:50:54;;;;;;;5.70;3.42;;;2.80;99.90;;;;;;5060758;28;20116;-83
2022/01/26 09:53:26;;;;;;;2.75;2.55;;;2.90;99.90;;;;;;5089697;28;20055;-83
2022/01/26 09:55:52;;;;;;;4.50;3.22;;;2.90;99.90;;;;;;5057483;28;20049;-83
2022/01/26 09:58:20;;;;;;;2.42;2.22;;;3.00;99.90;;;;;;5053523;28;20072;-84
2022/01/26 10:00:46;;;;;;;2.22;2.03;;;3.00;99.90;;;;;;5069665;28;20147;-82
2022/01/26 10:03:11;;;;;;;4.47;3.05;;;3.00;99.90;;;;;;5079572;28;20146;-83
2022/01/26 10:05:43;;;;;;;3.42;2.20;;;3.00;99.90;;;;;;5078296;28;20096;-82
2022/01/26 10:16:05;;;;;;;3.72;3.13;;;3.10;99.90;;;;;;5082230;28;20048;-83
2022/01/26 10:18:32;;;;;;;2.95;2.55;;;3.10;99.90;;;;;;5082741;28;20064;-83
2022/01/26 10:21:01;;;;;;;4.63;3.20;;;3.20;99.90;;;;;;5064851;28;20078;-84
2022/01/26 10:23:45;;;;;;;7.82;2.60;;;3.20;99.90;;;;;;5078935;28;20056;-83
2022/01/26 10:26:16;;;;;;;2.78;2.22;;;3.20;99.90;;;;;;5078185;28;20044;-83
2022/01/26 10:28:42;;;;;;;4.82;2.97;;;3.30;99.90;;;;;;5084123;28;20138;-83
2022/01/26 10:31:19;;;;;;;2.38;1.92;;;3.40;99.90;;;;;;5080326;28;20083;-83
2022/01/26 10:34:07;;;;;;;2.13;1.98;;;3.40;99.90;;;;;;5058694;28;20055;-84
2022/01/26 10:36:37;;;;;;;6.00;2.95;;;3.40;99.90;;;;;;5080246;28;20037;-84
2022/01/26 10:39:11;;;;;;;4.22;2.13;;;3.50;99.90;;;;;;5065451;28;20063;-86
2022/01/26 10:41:38;;;;;;;6.05;4.05;;;3.60;99.90;;;;;;5058444;28;20067;-87
2022/01/26 10:44:05;;;;;;;2.90;2.05;;;3.60;99.90;;;;;;5065770;28;20040;-84
2022/01/26 10:46:36;;;;;;;2.55;2.35;;;3.60;99.90;;;;;;5081515;28;20098;-83
2022/01/26 10:49:42;;;;;;;4.85;3.13;;;3.60;99.90;;;;;;5072357;28;20040;-83
2022/01/26 10:52:24;;;;;;;7.53;2.63;;;3.70;99.90;;;;;;5077781;28;20169;-83
2022/01/26 10:54:51;;;;;;;5.13;3.13;;;3.60;99.90;;;;;;5076843;28;20097;-83
2022/01/26 10:57:17;;;;;;;1.80;1.48;;;3.70;99.90;;;;;;5081826;28;20055;-85
2022/01/26 10:59:48;;;;;;;14.70;5.47;;;3.70;99.90;;;;;;5063112;28;20037;-85
2022/01/26 11:02:20;;;;;;;2.88;2.67;;;3.70;99.90;;;;;;5055701;28;20036;-83
2022/01/26 11:04:46;;;;;;;3.05;2.08;;;3.70;99.90;;;;;;5069806;28;20072;-82
2022/01/26 11:07:14;;;;;;;4.43;3.08;;;3.90;99.90;;;;;;5079655;28;20497;-83
2022/01/26 11:09:42;;;;;;;6.57;3.05;;;3.80;99.90;;;;;;5076929;28;20158;-83
2022/01/26 11:12:13;;;;;;;4.35;1.95;;;3.80;99.90;;;;;;5078584;28;20105;-83
2022/01/26 11:14:50;;;;;;;3.33;2.13;;;3.80;99.90;;;;;;5073956;28;20048;-81
2022/01/26 11:17:46;;;;;;;5.07;3.53;;;3.70;99.90;;;;;;5075410;28;20109;-84
2022/01/26 11:20:34;;;;;;;2.22;1.95;;;3.80;99.90;;;;;;5043799;28;20092;-83
2022/01/26 11:23:13;;;;;;;2.42;1.95;;;3.80;99.90;;;;;;5063220;28;20071;-84
2022/01/26 11:25:48;;;;;;;3.33;2.97;;;3.70;99.90;;;;;;5058345;28;20109;-85
2022/01/26 11:28:21;;;;;;;3.25;2.58;;;3.70;99.90;;;;;;5062930;28;20048;-85
2022/01/26 11:30:48;;;;;;;8.50;5.00;;;3.70;99.90;;;;;;5077920;28;20063;-85
2022/01/26 11:33:23;;;;;;;7.53;4.68;;;3.70;99.90;;;;;;5062208;28;20085;-84
2022/01/26 11:35:51;;;;;;;2.03;1.88;;;3.70;99.90;;;;;;5058781;28;20724;-85
2022/01/26 11:47:20;;;;;;;2.03;1.83;;;3.90;99.90;;;;;;5072270;28;20040;-86
2022/01/26 11:49:49;;;;;;;2.42;2.22;;;3.90;99.90;;;;;;5062253;28;20044;-85
2022/01/26 11:52:22;;;;;;;1.92;1.83;;;3.90;99.90;;;;;;5058435;28;20051;-85
2022/01/26 11:54:54;;;;;;;1.67;1.52;;;3.90;99.90;;;;;;5061798;28;20627;-85
2022/01/26 11:57:48;;;;;;;3.67;2.60;;;3.90;99.90;;;;;;5069538;28;20046;-83
2022/01/26 12:00:20;;;;;;;2.93;2.63;;;3.90;99.90;;;;;;5077887;28;20487;-84
2022/01/26 12:05:15;;;;;;;10.00;4.28;;;3.90;99.90;;;;;;5076580;28;20052;-84
2022/01/26 12:07:52;;;;;;;2.67;2.47;;;3.90;99.90;;;;;;5072694;28;20040;-83
2022/01/26 12:10:30;;;;;;;2.53;2.17;;;3.90;99.90;;;;;;5075109;28;20067;-82
2022/01/26 12:13:04;;;;;;;2.20;1.83;;;3.80;99.90;;;;;;5077841;28;20032;-82
2022/01/26 12:15:49;;;;;;;1.63;1.42;;;3.80;99.90;;;;;;5075665;28;20052;-82
2022/01/26 12:18:26;;;;;;;4.53;3.53;;;3.80;99.90;;;;;;5074155;28;20499;-83
2022/01/26 12:34:52;;;;;;;3.33;2.97;;;3.90;99.90;;;;;;5061523;28;20423;-83
2022/01/26 12:45:20;;;;;;;5.82;3.55;;;4.10;99.90;;;;;;5077254;28;20333;-82
2022/01/26 12:47:47;;;;;;;2.75;2.15;;;4.00;99.90;;;;;;5071173;28;20147;-83
2022/01/26 12:50:15;;;;;;;2.35;2.17;;;4.00;99.90;;;;;;5073762;28;20063;-83
2022/01/26 12:52:49;;;;;;;3.85;2.60;;;4.00;99.90;;;;;;5077990;28;20058;-82
2022/01/26 12:55:28;;;;;;;;;;;4.00;99.90;;;;;;5079040;28;20037;-82
2022/01/26 12:57:54;;;;;;;2.63;2.28;;;4.00;99.90;;;;;;5069401;28;19959;-84
2022/01/26 13:00:21;;;;;;;1.98;1.88;;;4.00;99.90;;;;;;5078845;28;20037;-84
2022/01/26 13:02:47;;;;;;;6.22;4.40;;;4.00;99.90;;;;;;5075668;28;20040;-82
2022/01/26 13:05:15;;;;;;;1.98;1.77;;;4.00;99.90;;;;;;5057979;28;20059;-84
2022/01/26 13:07:41;;;;;;;5.22;2.40;;;4.00;99.90;;;;;;5075273;28;20110;-83
2022/01/26 13:10:16;;;;;;;2.47;1.75;;;4.00;99.90;;;;;;5079083;28;20047;-81
2022/01/26 13:12:43;;;;;;;9.10;2.50;;;4.30;99.90;;;;;;5076483;28;20083;-82
2022/01/26 13:15:30;;;;;;;5.28;2.65;;;4.10;99.90;;;;;;5079158;28;20064;-81
2022/01/26 13:18:12;;;;;;;2.60;2.40;;;4.10;99.90;;;;;;5072267;28;20045;-82
2022/01/26 13:23:22;;;;;;;2.55;1.92;;;4.20;99.90;;;;;;5067638;28;20048;-82
2022/01/26 13:26:00;;;;;;;;;;;4.30;99.90;;;;;;5078524;28;20046;-82
2022/01/26 13:31:47;;;;;;;7.97;4.25;;;4.30;99.90;;;;;;5076630;28;20128;-83
2022/01/26 13:34:40;;;;;;;1.73;1.63;;;4.30;99.90;;;;;;5077151;28;20075;-83
2022/01/26 13:37:22;;;;;;;2.30;2.10;;;4.40;99.90;;;;;;5075889;28;20143;-82
2022/01/26 13:39:56;;;;;;;1.25;1.17;;;4.40;99.90;;;;;;5075214;28;20108;-84
2022/01/26 13:45:11;;;;;;;1.83;1.70;;;4.50;99.90;;;;;;5075677;28;20078;-85
2022/01/26 13:56:02;;;;;;;1.88;1.77;;;4.50;99.90;;;;;;5069175;28;20082;-82
2022/01/26 14:00:58;;;;;;;2.13;1.88;;;4.40;99.90;;;;;;5069896;28;20190;-83
2022/01/26 14:03:29;;;;;;;4.57;2.42;;;4.50;99.90;;;;;;5077087;28;20070;-83
2022/01/26 14:05:55;;;;;;;4.07;1.35;;;4.40;99.90;;;;;;5071457;28;20032;-81
2022/01/26 14:08:22;;;;;;;10.57;3.28;;;4.50;99.90;;;;;;5075216;28;20045;-82
2022/01/26 14:10:49;;;;;;;6.93;3.60;;;4.60;99.90;;;;;;5075137;28;20710;-81
2022/01/26 14:13:19;;;;;;;2.72;2.25;;;4.60;99.90;;;;;;5077595;28;20040;-82
2022/01/26 14:15:48;;;;;;;5.40;2.42;;;4.60;99.90;;;;;;5077033;28;20096;-83
2022/01/26 14:20:47;;;;;;;1.77;1.63;;;4.60;99.90;;;;;;5078138;28;20570;-82
2022/01/26 14:23:19;;;;;;;4.22;3.15;;;4.60;99.90;;;;;;5077126;28;20147;-83
2022/01/26 14:25:48;;;;;;;3.50;2.67;;;4.60;99.90;;;;;;5069471;28;20079;-83
2022/01/26 14:28:17;;;;;;;2.90;2.22;;;4.60;99.90;;;;;;5076879;28;20082;-82
2022/01/26 14:33:56;;;;;;;2.78;2.05;;;4.60;99.90;;;;;;5037521;28;20044;-83
2022/01/26 14:36:38;;;;;;;12.48;3.35;;;4.60;99.90;;;;;;5060488;28;20044;-83
2022/01/26 15:00:55;;;;;;;3.03;2.50;;;4.80;99.90;;;;;;5079950;28;20037;-84
2022/01/26 15:09:23;;;;;;;5.32;3.70;;;4.60;99.90;;;;;;5078170;28;20139;-82
2022/01/26 15:30:27;;;;;;;1.73;1.63;;;4.60;99.90;;;;;;5076683;28;20048;-81
2022/01/26 15:33:21;;;;;;;2.15;1.95;;;4.60;99.90;;;;;;5075860;28;20052;-80
2022/01/26 16:28:01;;;;;;;1.95;1.83;;;4.60;99.90;;;;;;4988579;28;20046;-83
2022/01/26 17:47:06;;;;;;;8.95;3.40;;;4.70;99.90;;;;;;5062651;28;20045;-84
2022/01/26 18:04:05;;;;;;;3.40;3.10;;;4.70;99.90;;;;;;5076934;28;20376;-85
2022/01/26 18:16:44;;;;;;;2.50;1.67;;;4.70;99.90;;;;;;5090133;28;20068;-84
2022/01/26 18:49:12;;;;;;;4.43;3.20;;;5.00;99.90;;;;;;5074839;28;19931;-83
2022/01/26 18:49:40;;;;;;;1.50;1.40;;;4.90;99.90;;;;;;5067051;28;20071;-83
2022/01/26 18:52:07;;;;;;;0.98;0.98;;;5.00;99.90;;;;;;5077547;28;20173;-82
2022/01/26 18:54:38;;;;;;;3.33;1.95;;;5.00;99.90;;;;;;5081483;28;20066;-83
2022/01/26 18:57:07;;;;;;;1.45;1.35;;;5.00;99.90;;;;;;5077615;28;20049;-82
2022/01/26 18:59:34;;;;;;;3.03;1.85;;;5.00;99.90;;;;;;5079189;28;20052;-82
2022/01/26 19:02:00;;;;;;;3.80;2.92;;;5.00;99.90;;;;;;5080031;28;20028;-85
2022/01/26 19:04:37;;;;;;;2.63;1.42;;;5.10;99.90;;;;;;5056536;28;20056;-82
2022/01/26 19:07:05;;;;;;;1.77;1.67;;;5.10;99.90;;;;;;5078922;28;20040;-82
2022/01/26 19:09:34;;;;;;;4.00;2.08;;;5.10;99.90;;;;;;5076237;28;20481;-82
2022/01/26 19:12:02;;;;;;;0.85;0.85;;;5.10;99.90;;;;;;5080834;28;20041;-82
2022/01/26 19:14:34;;;;;;;5.75;1.45;;;5.10;99.90;;;;;;5080703;28;20104;-85
2022/01/26 19:17:07;;;;;;;1.45;1.35;;;5.10;99.90;;;;;;5077153;28;20045;-81
2022/01/26 19:22:31;;;;;;;2.42;1.85;;;5.30;99.90;;;;;;5073010;28;20051;-82
2022/01/26 19:27:30;;;;;;;1.40;1.30;;;5.30;99.90;;;;;;5071822;28;20076;-83
2022/01/26 19:51:15;;;;;;;2.45;1.70;;;5.40;99.90;;;;;;5071344;28;20048;-86
2022/01/26 19:53:41;;;;;;;1.67;1.58;;;5.40;99.90;;;;;;5077873;28;20076;-84
2022/01/26 19:56:07;;;;;;;2.17;1.48;;;5.40;99.90;;;;;;5060985;28;20040;-84
2022/01/26 19:58:33;;;;;;;2.22;2.03;;;5.40;99.90;;;;;;5059306;28;20064;-83
2022/01/26 20:00:59;;;;;;;1.48;1.38;;;5.50;99.90;;;;;;5076599;28;20044;-83